Time;durP1;ratioP1;P1;durP2;ratioP2;P2;SDS_P1;SDS_P2;PMS_P1;PMS_P2;Temp;Humidity;BMP_temperature;BMP_pressure;BME280_temperature;BME280_humidity;BME280_pressure;Samples;Min_cycle;Max_cycle;Signal;HPM_P1;HPM_P2
2024/02/12 00:00:43;;;;;;;21.08;8.85;;;;;;;3.23;100.00;98867.25;5075687;28;20424;-77
2024/02/12 00:03:17;;;;;;;24.50;9.25;;;;;;;3.25;100.00;98871.53;5080299;28;20780;-78
2024/02/12 00:05:50;;;;;;;19.80;9.25;;;;;;;3.23;100.00;98871.78;5075347;28;20419;-78
2024/02/12 00:08:18;;;;;;;22.55;9.02;;;;;;;3.25;100.00;98861.59;5073575;28;20509;-78
2024/02/12 00:10:54;;;;;;;22.00;9.05;;;;;;;3.21;100.00;98864.00;5080768;28;20429;-78
2024/02/12 00:13:27;;;;;;;24.30;9.27;;;;;;;3.23;100.00;98872.63;5078204;28;20433;-78
2024/02/12 00:16:01;;;;;;;21.90;8.98;;;;;;;3.25;100.00;98860.78;5077999;28;20437;-78
2024/02/12 00:18:31;;;;;;;21.15;8.63;;;;;;;3.25;100.00;98858.91;5074782;28;20405;-78
2024/02/12 00:21:05;;;;;;;24.80;8.82;;;;;;;3.19;100.00;98870.72;5076694;28;20424;-78
2024/02/12 00:23:38;;;;;;;21.23;8.53;;;;;;;3.23;100.00;98866.41;5077190;28;21046;-78
2024/02/12 00:26:11;;;;;;;21.80;8.32;;;;;;;3.23;100.00;98866.41;5078298;28;20417;-78
2024/02/12 00:28:48;;;;;;;19.52;8.90;;;;;;;3.20;100.00;98869.66;5079552;28;20422;-78
2024/02/12 00:31:21;;;;;;;21.08;8.90;;;;;;;3.21;100.00;98869.38;5083510;28;20439;-78
2024/02/12 00:33:56;;;;;;;20.63;8.48;;;;;;;3.17;100.00;98871.00;5075636;28;20418;-78
2024/02/12 00:36:29;;;;;;;20.77;8.60;;;;;;;3.20;100.00;98865.09;5077360;28;20416;-78
2024/02/12 00:39:09;;;;;;;20.42;8.27;;;;;;;3.18;100.00;98867.25;5075730;28;20421;-78
2024/02/12 00:41:48;;;;;;;21.85;8.88;;;;;;;3.17;100.00;98870.22;5075156;28;20438;-78
2024/02/12 00:44:21;;;;;;;20.90;8.80;;;;;;;3.15;100.00;98873.19;5078830;28;20437;-78
2024/02/12 00:46:55;;;;;;;20.20;8.90;;;;;;;3.19;100.00;98878.81;5075406;28;20427;-78
2024/02/12 00:49:29;;;;;;;20.87;8.53;;;;;;;3.17;100.00;98876.38;5076835;28;20423;-78
2024/02/12 00:51:58;;;;;;;19.00;8.97;;;;;;;3.06;100.00;98875.63;5078458;28;21255;-78
2024/02/12 00:54:32;;;;;;;22.60;10.23;;;;;;;3.13;100.00;98874.53;5076385;28;20422;-78
2024/02/12 00:57:00;;;;;;;19.10;9.38;;;;;;;3.14;100.00;98876.94;5076506;28;20473;-78
2024/02/12 00:59:34;;;;;;;22.73;9.63;;;;;;;3.15;100.00;98867.81;5076634;28;20505;-78
2024/02/12 01:02:09;;;;;;;21.70;10.00;;;;;;;3.20;100.00;98875.88;5079481;28;20409;-78
2024/02/12 01:04:43;;;;;;;24.27;9.82;;;;;;;3.24;100.00;98881.47;5079288;28;20423;-78
2024/02/12 01:07:11;;;;;;;25.00;9.32;;;;;;;3.14;100.00;98876.94;5080495;28;20424;-78
2024/02/12 01:09:45;;;;;;;23.48;9.38;;;;;;;3.18;100.00;98879.91;5079286;28;20749;-78
2024/02/12 01:12:18;;;;;;;22.30;9.47;;;;;;;3.17;100.00;98881.75;5085343;28;20455;-78
2024/02/12 01:14:51;;;;;;;22.23;8.68;;;;;;;3.18;100.00;98877.22;5096880;28;20929;-78
2024/02/12 01:17:24;;;;;;;23.90;8.85;;;;;;;3.15;100.00;98881.25;5085366;28;20427;-78
2024/02/12 01:19:59;;;;;;;21.77;9.20;;;;;;;3.21;100.00;98877.44;5079707;28;20789;-78
2024/02/12 01:22:33;;;;;;;20.85;9.00;;;;;;;3.22;100.00;98873.69;5079966;28;20420;-78
2024/02/12 01:25:07;;;;;;;23.23;9.07;;;;;;;3.25;100.00;98882.31;5078892;28;20427;-78
2024/02/12 01:27:40;;;;;;;24.83;9.23;;;;;;;3.21;100.00;98880.13;5078107;28;20416;-78
2024/02/12 01:30:15;;;;;;;21.10;9.40;;;;;;;3.16;100.00;98879.34;5077551;28;20433;-78
2024/02/12 01:32:48;;;;;;;21.83;8.85;;;;;;;3.16;100.00;98884.72;5077321;28;20478;-78
2024/02/12 01:35:22;;;;;;;24.43;9.13;;;;;;;3.22;100.00;98889.81;5074844;28;20419;-78
2024/02/12 01:37:52;;;;;;;22.05;9.48;;;;;;;3.23;100.00;98882.53;5075555;28;20425;-78
2024/02/12 01:40:25;;;;;;;22.90;9.00;;;;;;;3.14;100.00;98894.97;5081000;28;20422;-78
2024/02/12 01:42:58;;;;;;;22.73;8.70;;;;;;;3.20;100.00;98894.69;5086614;28;20504;-78
2024/02/12 01:45:33;;;;;;;22.02;9.02;;;;;;;3.22;100.00;98889.03;5076509;28;20442;-78
2024/02/12 01:48:09;;;;;;;22.55;8.85;;;;;;;3.15;100.00;98894.69;5077694;28;20435;-78
2024/02/12 01:50:43;;;;;;;20.38;8.60;;;;;;;3.16;100.00;98903.56;5080413;28;20425;-78
2024/02/12 01:53:17;;;;;;;24.00;9.38;;;;;;;3.19;100.00;98909.19;5077896;28;20427;-78
2024/02/12 01:55:51;;;;;;;21.92;8.90;;;;;;;3.22;100.00;98897.88;5081973;28;20409;-78
2024/02/12 01:58:19;;;;;;;21.67;9.15;;;;;;;3.22;100.00;98907.84;5091254;28;20427;-78
2024/02/12 02:00:53;;;;;;;21.48;8.75;;;;;;;3.25;100.00;98909.19;5081308;28;20428;-78
2024/02/12 02:03:28;;;;;;;18.48;8.23;;;;;;;3.19;100.00;98911.88;5092845;28;20510;-78
2024/02/12 02:06:03;;;;;;;20.88;8.48;;;;;;;3.21;100.00;98906.22;5081207;28;20426;-78
2024/02/12 02:08:37;;;;;;;19.60;8.55;;;;;;;3.25;100.00;98903.81;5095190;27;20428;-78
2024/02/12 02:11:11;;;;;;;20.20;8.18;;;;;;;3.26;100.00;98911.59;5084793;28;20782;-78
2024/02/12 02:13:45;;;;;;;20.53;8.57;;;;;;;3.26;100.00;98914.28;5077335;28;20433;-78
2024/02/12 02:16:19;;;;;;;17.92;7.43;;;;;;;3.30;100.00;98914.50;5075241;28;20412;-78
2024/02/12 02:18:52;;;;;;;20.25;8.23;;;;;;;3.29;100.00;98915.63;5076521;28;20419;-78
2024/02/12 02:21:27;;;;;;;20.48;8.27;;;;;;;3.23;100.00;98912.94;5080227;28;20652;-78
2024/02/12 02:24:02;;;;;;;21.38;8.40;;;;;;;3.28;100.00;98911.31;5095183;28;20418;-78
2024/02/12 02:26:35;;;;;;;19.20;8.23;;;;;;;3.28;100.00;98911.31;5080279;28;20924;-78
2024/02/12 02:29:09;;;;;;;19.30;8.00;;;;;;;3.26;100.00;98914.28;5078954;28;20460;-78
2024/02/12 02:31:38;;;;;;;20.07;8.67;;;;;;;3.29;100.00;98912.94;5078596;28;20431;-78
2024/02/12 02:34:11;;;;;;;20.33;8.55;;;;;;;3.28;100.00;98914.00;5078656;28;20775;-78
2024/02/12 02:36:47;;;;;;;22.92;8.77;;;;;;;3.27;100.00;98917.75;5078140;28;20419;-78
2024/02/12 02:39:22;;;;;;;23.93;8.80;;;;;;;3.28;100.00;98919.38;5078130;28;20421;-78
2024/02/12 02:41:51;;;;;;;24.80;9.00;;;;;;;3.24;100.00;98916.41;5078607;28;20416;-78
2024/02/12 02:44:25;;;;;;;23.90;8.85;;;;;;;3.26;100.00;98922.34;5077737;28;20422;-78
2024/02/12 02:46:58;;;;;;;22.27;8.73;;;;;;;3.23;100.00;98923.69;5075558;28;20426;-78
2024/02/12 02:49:31;;;;;;;19.73;7.90;;;;;;;3.25;100.00;98920.72;5075170;28;21265;-78
2024/02/12 02:52:05;;;;;;;21.25;8.30;;;;;;;3.29;100.00;98923.69;5079553;28;20420;-78
2024/02/12 02:54:39;;;;;;;25.30;8.13;;;;;;;3.25;100.00;98926.09;5076746;28;20414;-78
2024/02/12 02:57:13;;;;;;;26.43;8.60;;;;;;;3.24;100.00;98921.81;5076641;28;20436;-78
2024/02/12 02:59:46;;;;;;;22.50;8.48;;;;;;;3.24;100.00;98929.88;5078772;28;20740;-78
2024/02/12 03:02:19;;;;;;;22.65;8.07;;;;;;;3.30;100.00;98930.66;5079629;28;20427;-78
2024/02/12 03:04:53;;;;;;;24.08;8.18;;;;;;;3.25;100.00;98931.47;5080663;28;20423;-78
2024/02/12 03:07:26;;;;;;;31.10;8.50;;;;;;;3.23;100.00;98934.44;5073428;28;20462;-78
2024/02/12 03:10:01;;;;;;;23.17;8.23;;;;;;;3.33;100.00;98930.91;5080120;28;20431;-78
2024/02/12 03:12:34;;;;;;;32.55;8.55;;;;;;;3.29;100.00;98929.84;5077715;28;20472;-78
2024/02/12 03:15:11;;;;;;;23.08;8.07;;;;;;;3.32;100.00;98941.94;5080855;28;20417;-78
2024/02/12 03:17:46;;;;;;;36.77;8.93;;;;;;;3.28;100.00;98932.81;5081401;28;20421;-78
2024/02/12 03:20:21;;;;;;;39.75;8.70;;;;;;;3.35;100.00;98938.69;5074702;28;20424;-78
2024/02/12 03:22:54;;;;;;;27.00;8.60;;;;;;;3.34;100.00;98935.22;5076224;28;20427;-78
2024/02/12 03:25:29;;;;;;;25.15;9.23;;;;;;;3.35;100.00;98934.13;5075316;28;20509;-78
2024/02/12 03:28:02;;;;;;;31.95;8.60;;;;;;;3.45;100.00;98935.16;5078517;28;20414;-78
2024/02/12 03:30:35;;;;;;;26.95;8.40;;;;;;;3.42;100.00;98943.78;5077915;28;20427;-78
2024/02/12 03:33:09;;;;;;;26.42;8.82;;;;;;;3.40;100.00;98936.78;5076531;28;20426;-78
2024/02/12 03:35:42;;;;;;;26.33;8.80;;;;;;;3.43;100.00;98940.81;5079579;28;20928;-78
2024/02/12 03:38:15;;;;;;;33.03;9.32;;;;;;;3.42;100.00;98944.59;5076872;28;20416;-78
2024/02/12 03:40:49;;;;;;;27.40;9.27;;;;;;;3.43;100.00;98946.19;5077601;28;20419;-78
2024/02/12 03:43:24;;;;;;;26.38;9.40;;;;;;;3.44;100.00;98939.75;5075137;28;20429;-78
2024/02/12 03:45:52;;;;;;;26.65;9.55;;;;;;;3.46;100.00;98939.47;5080249;28;20448;-78
2024/02/12 03:59:53;;;;;;;28.95;10.18;;;;;;;3.58;100.00;98961.47;5076680;28;20421;-78
2024/02/12 04:02:27;;;;;;;28.27;9.68;;;;;;;3.59;100.00;98960.41;5080029;28;20421;-78
2024/02/12 04:05:02;;;;;;;27.23;9.90;;;;;;;3.66;100.00;98966.28;5081297;28;20917;-78
2024/02/12 04:07:30;;;;;;;25.05;9.40;;;;;;;3.63;100.00;98966.81;5082248;28;20418;-78
2024/02/12 04:09:59;;;;;;;25.52;9.43;;;;;;;3.60;100.00;98967.38;5078214;28;20423;-78
2024/02/12 04:12:34;;;;;;;31.90;10.07;;;;;;;3.58;100.00;98969.53;5081635;28;20435;-78
2024/02/12 04:15:10;;;;;;;26.42;10.65;;;;;;;3.61;100.00;98969.00;5076533;28;20425;-78
2024/02/12 04:17:45;;;;;;;26.08;10.02;;;;;;;3.69;100.00;98971.09;5074997;28;20410;-78
2024/02/12 04:20:18;;;;;;;28.75;10.27;;;;;;;3.66;100.00;98970.84;5081527;28;20429;-78
2024/02/12 04:22:52;;;;;;;25.45;9.80;;;;;;;3.64;100.00;98963.03;5073906;28;20432;-78
2024/02/12 04:25:26;;;;;;;25.52;10.00;;;;;;;3.67;100.00;98972.47;5077682;28;20409;-78
2024/02/12 04:28:03;;;;;;;33.05;10.57;;;;;;;3.66;100.00;98976.22;5075025;28;20430;-78
2024/02/12 04:30:31;;;;;;;28.58;9.80;;;;;;;3.65;100.00;98978.13;5075067;28;20426;-78
2024/02/12 04:33:04;;;;;;;30.40;10.20;;;;;;;3.65;100.00;98974.63;5076549;28;20416;-78
2024/02/12 04:35:38;;;;;;;30.40;10.40;;;;;;;3.67;100.00;98981.31;5077395;28;20532;-78
2024/02/12 04:38:06;;;;;;;24.70;9.82;;;;;;;3.66;100.00;98978.91;5077603;28;21011;-78
2024/02/12 04:40:40;;;;;;;38.25;10.70;;;;;;;3.70;100.00;98986.16;5086221;28;20944;-78
2024/02/12 04:43:09;;;;;;;25.85;10.10;;;;;;;3.84;100.00;98983.69;5079178;28;21663;-78
2024/02/12 04:45:38;;;;;;;28.10;10.23;;;;;;;3.76;100.00;98981.56;5098585;28;20432;-78
2024/02/12 04:48:13;;;;;;;24.50;9.82;;;;;;;3.71;100.00;98987.75;5081513;28;20422;-78
2024/02/12 04:50:46;;;;;;;26.63;10.20;;;;;;;3.74;100.00;98994.47;5079374;28;20442;-78
2024/02/12 04:53:19;;;;;;;29.67;10.70;;;;;;;3.74;100.00;98991.78;5079973;28;20417;-78
2024/02/12 04:55:52;;;;;;;28.85;10.00;;;;;;;3.78;100.00;98998.22;5076281;28;20423;-78
2024/02/12 04:58:27;;;;;;;26.30;10.15;;;;;;;3.76;100.00;98997.72;5092607;28;20427;-78
2024/02/12 05:01:00;;;;;;;29.30;10.00;;;;;;;3.75;100.00;99002.28;5078258;28;20427;-79
2024/02/12 05:03:34;;;;;;;24.88;9.68;;;;;;;3.75;100.00;99001.47;5079632;28;20408;-78
2024/02/12 05:06:08;;;;;;;23.55;9.90;;;;;;;3.77;100.00;99011.97;5078507;28;20425;-78
2024/02/12 05:08:41;;;;;;;28.20;10.13;;;;;;;3.82;100.00;99015.44;5082843;28;20824;-78
2024/02/12 05:11:14;;;;;;;26.98;9.80;;;;;;;3.81;100.00;99021.91;5080074;28;20409;-78
2024/02/12 05:13:44;;;;;;;24.63;9.32;;;;;;;3.85;100.00;99028.34;5078827;28;20424;-78
2024/02/12 05:16:17;;;;;;;25.13;10.30;;;;;;;3.91;100.00;99023.75;5078980;28;20441;-78
2024/02/12 05:24:32;;;;;;;26.85;10.77;;;;;;;4.18;100.00;99030.59;5081506;28;20418;-78
2024/02/12 05:27:05;;;;;;;27.58;10.43;;;;;;;4.01;100.00;99030.97;5078742;28;20419;-78
2024/02/12 05:29:37;;;;;;;28.03;10.80;;;;;;;4.00;100.00;99029.34;5081558;28;20430;-78
2024/02/12 05:32:11;;;;;;;26.63;10.65;;;;;;;4.11;100.00;99030.13;5085449;28;21113;-78
2024/02/12 05:34:47;;;;;;;26.25;10.25;;;;;;;4.22;100.00;99032.47;5080751;28;20418;-78
2024/02/12 05:37:20;;;;;;;28.17;11.87;;;;;;;4.25;100.00;99034.63;5083618;28;20622;-78
2024/02/12 05:39:53;;;;;;;26.88;11.10;;;;;;;4.23;100.00;99038.66;5078342;28;20421;-78
2024/02/12 05:42:27;;;;;;;30.33;11.10;;;;;;;4.18;100.00;99044.88;5080168;28;20428;-78
2024/02/12 05:44:56;;;;;;;28.45;10.88;;;;;;;4.21;100.00;99040.81;5079329;28;20417;-78
2024/02/12 05:47:24;;;;;;;32.20;11.73;;;;;;;4.19;100.00;99045.69;5080443;28;20409;-78
2024/02/12 05:49:54;;;;;;;28.48;12.02;;;;;;;4.25;100.00;99042.69;5095439;28;20426;-78
2024/02/12 05:52:27;;;;;;;28.40;11.80;;;;;;;4.43;100.00;99040.41;5076958;28;20445;-78
2024/02/12 05:55:01;;;;;;;29.38;11.23;;;;;;;4.24;100.00;99043.78;5078649;28;20422;-78
2024/02/12 05:57:34;;;;;;;29.83;11.80;;;;;;;4.28;100.00;99051.28;5079363;28;20420;-78
2024/02/12 06:00:04;;;;;;;28.30;11.52;;;;;;;4.30;100.00;99055.31;5082710;28;20436;-78
2024/02/12 06:02:34;;;;;;;32.88;11.60;;;;;;;4.27;100.00;99058.56;5076320;28;20426;-78
2024/02/12 06:05:08;;;;;;;25.67;9.95;;;;;;;4.30;100.00;99060.69;5092902;28;20431;-78
2024/02/12 06:07:41;;;;;;;27.98;10.48;;;;;;;4.29;100.00;99058.28;5078945;28;20430;-78
2024/02/12 06:10:16;;;;;;;27.42;10.70;;;;;;;4.39;100.00;99061.72;5078129;28;20427;-78
2024/02/12 06:12:50;;;;;;;28.48;10.88;;;;;;;4.43;100.00;99061.97;5077730;28;20420;-78
2024/02/12 06:15:24;;;;;;;27.95;11.35;;;;;;;4.48;100.00;99061.16;5077593;28;20420;-78
2024/02/12 06:17:52;;;;;;;28.63;11.07;;;;;;;4.40;100.00;99068.72;5079753;28;20903;-78
2024/02/12 06:20:25;;;;;;;24.80;10.50;;;;;;;4.39;100.00;99067.13;5078641;28;20427;-78
2024/02/12 06:22:59;;;;;;;30.55;11.13;;;;;;;4.34;100.00;99071.72;5096855;28;20439;-78
2024/02/12 06:25:32;;;;;;;26.43;10.77;;;;;;;4.51;100.00;99068.66;5082730;28;20441;-78
2024/02/12 06:28:05;;;;;;;27.17;10.48;;;;;;;4.47;100.00;99073.78;5079932;28;20904;-78
2024/02/12 06:30:41;;;;;;;27.55;11.35;;;;;;;4.46;100.00;99071.38;5078988;28;20413;-78
2024/02/12 06:33:14;;;;;;;29.37;11.60;;;;;;;4.45;100.00;99075.16;5078710;28;20421;-78
2024/02/12 06:35:47;;;;;;;33.90;11.98;;;;;;;4.43;100.00;99083.50;5080348;28;20446;-78
2024/02/12 06:38:21;;;;;;;36.00;12.10;;;;;;;4.45;100.00;99092.13;5079443;28;20433;-78
2024/02/12 06:40:54;;;;;;;31.58;11.82;;;;;;;4.49;100.00;99097.75;5079136;28;20428;-78
2024/02/12 06:43:27;;;;;;;33.67;11.90;;;;;;;4.52;100.00;99098.00;5077402;28;20418;-78
2024/02/12 06:46:02;;;;;;;29.67;11.80;;;;;;;4.57;100.00;99100.69;5078529;28;20426;-78
2024/02/12 06:48:35;;;;;;;35.53;12.20;;;;;;;4.58;100.00;99101.47;5076400;28;20788;-78
2024/02/12 06:51:09;;;;;;;37.78;12.68;;;;;;;4.62;100.00;99105.22;5076625;28;20426;-79
2024/02/12 06:53:44;;;;;;;41.67;12.88;;;;;;;4.56;100.00;99103.66;5080731;28;20430;-78
2024/02/12 06:56:19;;;;;;;42.63;12.82;;;;;;;4.71;100.00;99113.50;5079309;28;20420;-78
2024/02/12 06:58:52;;;;;;;43.08;13.85;;;;;;;4.66;100.00;99119.75;5075378;28;20760;-78
2024/02/12 07:01:27;;;;;;;43.10;13.05;;;;;;;4.73;100.00;99117.53;5079308;28;20433;-78
2024/02/12 07:04:01;;;;;;;46.25;14.60;;;;;;;4.68;100.00;99119.47;5076758;28;20426;-78
2024/02/12 07:06:34;;;;;;;46.30;14.20;;;;;;;4.64;100.00;99111.16;5079305;28;20979;-78
2024/02/12 07:09:08;;;;;;;51.03;14.57;;;;;;;4.67;100.00;99121.38;5078983;28;20415;-78
2024/02/12 07:11:41;;;;;;;45.83;15.18;;;;;;;4.75;100.00;99120.78;5077423;28;21005;-78
2024/02/12 07:14:14;;;;;;;43.75;14.82;;;;;;;4.73;100.00;99122.94;5078954;28;20415;-78
2024/02/12 07:16:49;;;;;;;49.15;15.73;;;;;;;4.82;100.00;99128.56;5076113;28;20441;-80
2024/02/12 07:19:23;;;;;;;49.63;15.73;;;;;;;4.83;100.00;99137.44;5080091;28;20423;-80
2024/02/12 07:21:56;;;;;;;46.78;16.00;;;;;;;4.79;100.00;99134.50;5079070;28;20999;-79
2024/02/12 07:24:24;;;;;;;50.58;17.02;;;;;;;4.89;100.00;99139.03;5077677;28;20429;-79
2024/02/12 07:26:57;;;;;;;45.60;16.88;;;;;;;4.87;100.00;99143.88;5073233;28;20440;-78
2024/02/12 07:29:31;;;;;;;46.63;17.08;;;;;;;4.88;100.00;99150.91;5075712;28;20427;-79
2024/02/12 07:32:06;;;;;;;53.50;16.15;;;;;;;4.82;100.00;99150.13;5075160;28;20431;-79
2024/02/12 07:34:39;;;;;;;48.05;16.08;;;;;;;4.91;100.00;99156.50;5076309;28;20422;-79
2024/02/12 07:37:12;;;;;;;51.60;17.20;;;;;;;4.92;100.00;99157.34;5074925;28;20430;-79
2024/02/12 07:39:46;;;;;;;49.93;16.90;;;;;;;4.93;100.00;99161.66;5074394;28;20430;-79
2024/02/12 07:42:19;;;;;;;46.65;16.95;;;;;;;4.95;100.00;99162.16;5074454;28;20435;-79
2024/02/12 07:44:52;;;;;;;50.92;17.33;;;;;;;5.07;100.00;99169.91;5074854;28;20427;-79
2024/02/12 07:47:28;;;;;;;54.25;17.45;;;;;;;4.96;100.00;99174.56;5082713;28;20422;-79
2024/02/12 07:50:02;;;;;;;50.15;16.98;;;;;;;4.91;100.00;99175.38;5081400;28;20425;-79
2024/02/12 07:52:38;;;;;;;52.30;17.02;;;;;;;4.92;100.00;99179.69;5079204;28;20439;-79
2024/02/12 07:55:13;;;;;;;56.15;17.92;;;;;;;4.92;100.00;99178.91;5074870;28;20442;-79
2024/02/12 07:57:48;;;;;;;69.07;23.38;;;;;;;4.96;100.00;99188.03;5075105;28;20435;-78
2024/02/12 08:00:18;;;;;;;51.75;18.20;;;;;;;4.99;100.00;99192.06;5088148;28;21213;-79
2024/02/12 08:02:53;;;;;;;60.85;22.25;;;;;;;5.17;100.00;99187.91;5076143;28;20420;-79
2024/02/12 08:05:26;;;;;;;59.20;23.40;;;;;;;5.16;100.00;99189.78;5077087;28;20424;-82
2024/02/12 08:08:00;;;;;;;46.63;17.33;;;;;;;5.18;100.00;99195.72;5079728;28;20428;-79
2024/02/12 08:10:34;;;;;;;51.28;16.42;;;;;;;5.21;100.00;99199.75;5074573;28;20420;-79
2024/02/12 08:13:07;;;;;;;44.83;15.45;;;;;;;5.24;100.00;99199.19;5076992;28;20436;-79
2024/02/12 08:15:40;;;;;;;41.05;14.80;;;;;;;5.22;100.00;99206.72;5075221;28;20427;-79
2024/02/12 08:18:10;;;;;;;38.75;14.07;;;;;;;5.15;100.00;99211.66;5076925;28;20882;-77
2024/02/12 08:20:44;;;;;;;38.40;13.82;;;;;;;5.21;100.00;99215.94;5073069;28;20426;-77
2024/02/12 08:23:17;;;;;;;41.28;14.00;;;;;;;5.15;100.00;99217.88;5080711;28;20411;-77
2024/02/12 08:25:46;;;;;;;37.50;13.38;;;;;;;5.14;100.00;99226.19;5075146;28;20433;-78
2024/02/12 08:28:22;;;;;;;36.00;12.52;;;;;;;5.20;100.00;99225.91;5075590;28;21116;-77
2024/02/12 08:30:57;;;;;;;38.00;12.48;;;;;;;5.30;100.00;99224.22;5076291;28;20424;-77
2024/02/12 08:33:33;;;;;;;27.25;10.43;;;;;;;5.30;100.00;99225.03;5062976;28;20425;-78
2024/02/12 08:36:07;;;;;;;29.58;11.20;;;;;;;5.40;100.00;99238.44;5060879;28;20433;-77
2024/02/12 08:38:40;;;;;;;28.05;10.93;;;;;;;5.39;100.00;99236.03;5064910;28;20429;-77
2024/02/12 08:41:22;;;;;;;26.05;9.80;;;;;;;5.40;100.00;99248.41;5057118;28;20422;-77
2024/02/12 08:43:56;;;;;;;25.38;9.68;;;;;;;5.56;100.00;99238.34;5054251;28;21301;-77
2024/02/12 08:46:24;;;;;;;26.77;10.48;;;;;;;5.56;100.00;99252.63;5057638;28;20414;-78
2024/02/12 08:48:58;;;;;;;23.05;9.43;;;;;;;5.42;100.00;99257.84;5060961;28;21075;-77
2024/02/12 08:51:31;;;;;;;24.30;10.25;;;;;;;5.47;100.00;99258.91;5068360;28;20430;-76
2024/02/12 08:54:05;;;;;;;28.20;10.57;;;;;;;5.59;100.00;99262.88;5059023;28;20906;-77
2024/02/12 08:56:39;;;;;;;26.55;10.25;;;;;;;5.63;100.00;99263.09;5051548;28;20465;-77
2024/02/12 08:59:07;;;;;;;25.98;9.73;;;;;;;5.65;100.00;99273.63;5075204;28;20469;-77
2024/02/12 09:01:41;;;;;;;23.83;9.85;;;;;;;5.82;100.00;99257.03;5053277;28;20431;-77
2024/02/12 09:04:15;;;;;;;26.40;10.30;;;;;;;5.70;100.00;99266.28;5062055;28;20429;-77
2024/02/12 09:06:49;;;;;;;26.80;10.63;;;;;;;5.79;100.00;99271.91;5055605;28;20425;-77
2024/02/12 09:09:22;;;;;;;25.50;10.43;;;;;;;5.90;100.00;99278.81;5059339;28;20422;-77
2024/02/12 09:11:55;;;;;;;26.20;10.50;;;;;;;5.90;100.00;99283.41;5058359;28;20410;-77
2024/02/12 09:14:28;;;;;;;26.15;9.82;;;;;;;5.85;100.00;99288.84;5061018;28;20889;-77
2024/02/12 09:17:01;;;;;;;27.42;10.25;;;;;;;5.87;100.00;99298.28;5057393;28;20457;-77
2024/02/12 09:19:36;;;;;;;26.02;9.73;;;;;;;5.90;100.00;99294.22;5053115;28;20523;-78
2024/02/12 09:22:10;;;;;;;22.15;9.25;;;;;;;6.02;100.00;99301.97;5063020;28;20420;-77
2024/02/12 09:24:43;;;;;;;21.95;9.25;;;;;;;5.99;100.00;99313.34;5061683;28;20418;-77
2024/02/12 09:27:16;;;;;;;23.30;9.03;;;;;;;6.02;100.00;99301.97;5050224;28;20433;-77
2024/02/12 09:29:49;;;;;;;22.17;9.20;;;;;;;6.09;100.00;99310.53;5067234;28;21133;-78
2024/02/12 09:32:22;;;;;;;22.25;9.32;;;;;;;6.06;100.00;99316.50;5053077;28;21179;-77
2024/02/12 09:34:57;;;;;;;20.90;9.13;;;;;;;6.14;100.00;99313.22;5053507;28;21042;-77
2024/02/12 09:37:32;;;;;;;18.60;8.60;;;;;;;6.00;100.00;99320.38;5054822;28;20437;-77
2024/02/12 09:40:07;;;;;;;20.10;8.35;;;;;;;5.90;100.00;99330.13;5055204;28;20430;-77
2024/02/12 09:42:41;;;;;;;20.60;8.27;;;;;;;5.93;100.00;99331.44;5059160;28;20426;-77
2024/02/12 09:45:17;;;;;;;17.93;7.50;;;;;;;5.90;100.00;99332.81;5051317;28;20433;-77
2024/02/12 09:47:46;;;;;;;19.53;8.23;;;;;;;5.94;100.00;99338.47;5081127;28;20437;-77
2024/02/12 09:50:22;;;;;;;18.55;8.35;;;;;;;5.93;100.00;99336.84;5060682;28;20426;-77
2024/02/12 09:52:57;;;;;;;18.38;7.95;;;;;;;6.00;100.00;99341.97;5060977;28;20894;-77
2024/02/12 09:55:31;;;;;;;18.48;7.80;;;;;;;5.98;100.00;99341.44;5057036;28;20452;-77
2024/02/12 09:58:06;;;;;;;18.50;7.20;;;;;;;6.04;100.00;99348.41;5059094;28;20438;-77
2024/02/12 10:00:40;;;;;;;17.30;7.32;;;;;;;6.06;100.00;99349.75;5057505;28;20430;-77
2024/02/12 10:03:13;;;;;;;16.98;6.95;;;;;;;6.18;100.00;99353.97;5061577;28;20422;-77
2024/02/12 10:05:48;;;;;;;17.88;7.63;;;;;;;6.22;100.00;99357.72;5052228;28;20426;-77
2024/02/12 10:08:22;;;;;;;16.90;7.50;;;;;;;6.12;100.00;99359.41;5061814;28;20494;-77
2024/02/12 10:10:56;;;;;;;19.88;7.95;;;;;;;6.12;100.00;99364.81;5061581;28;21331;-77
2024/02/12 10:13:29;;;;;;;18.85;7.78;;;;;;;6.25;100.00;99366.06;5081979;28;20902;-77
2024/02/12 10:16:04;;;;;;;20.55;8.45;;;;;;;6.26;100.00;99364.97;5061572;28;20418;-77
2024/02/12 10:18:39;;;;;;;18.55;7.80;;;;;;;6.27;100.00;99369.28;5065226;28;20965;-77
2024/02/12 10:21:08;;;;;;;18.42;8.10;;;;;;;6.46;100.00;99374.81;5066473;28;20415;-77
2024/02/12 10:23:42;;;;;;;20.73;8.03;;;;;;;6.47;100.00;99365.59;5062730;28;20429;-77
2024/02/12 10:26:21;;;;;;;20.38;7.78;;;;;;;6.44;100.00;99373.47;5058173;28;20778;-77
2024/02/12 10:28:55;;;;;;;17.43;8.03;;;;;;;6.55;100.00;99377.69;5067336;28;20440;-77
2024/02/12 10:31:24;;;;;;;16.90;7.35;;;;;;;6.53;100.00;99381.75;5057987;28;20441;-77
2024/02/12 10:34:03;;;;;;;18.90;7.80;;;;;;;6.58;100.00;99376.31;5043834;28;20414;-77
2024/02/12 10:36:38;;;;;;;20.55;7.35;;;;;;;6.54;100.00;99381.47;5051203;28;20437;-77
2024/02/12 10:39:13;;;;;;;16.27;7.72;;;;;;;6.56;100.00;99373.06;5052543;28;20433;-77
2024/02/12 10:41:50;;;;;;;17.75;7.20;;;;;;;6.52;100.00;99393.66;5060969;28;20418;-77
2024/02/12 10:44:24;;;;;;;16.23;7.25;;;;;;;6.49;100.00;99391.53;5062055;28;20425;-77
2024/02/12 10:46:58;;;;;;;16.92;6.82;;;;;;;6.44;100.00;99400.50;5065900;28;20426;-76
2024/02/12 10:49:31;;;;;;;20.40;7.70;;;;;;;6.49;100.00;99391.53;5058247;28;20433;-77
2024/02/12 10:52:06;;;;;;;17.47;7.23;;;;;;;6.62;100.00;99378.16;5064155;28;20433;-77
2024/02/12 10:54:35;;;;;;;18.42;7.25;;;;;;;6.72;100.00;99389.97;5061517;28;20409;-77
2024/02/12 10:57:09;;;;;;;16.95;7.13;;;;;;;6.77;100.00;99388.00;5066739;28;21130;-77
2024/02/12 10:59:42;;;;;;;21.02;7.88;;;;;;;6.63;100.00;99398.69;5061370;28;20422;-76
2024/02/12 11:02:16;;;;;;;18.67;6.80;;;;;;;6.69;100.00;99398.66;5062468;28;20413;-77
2024/02/12 11:04:55;;;;;;;15.85;6.70;;;;;;;6.64;100.00;99385.97;5059940;28;21081;-77
2024/02/12 11:07:30;;;;;;;19.33;7.20;;;;;;;6.83;100.00;99401.47;5065493;28;20433;-78
2024/02/12 11:10:06;;;;;;;16.77;6.90;;;;;;;6.79;100.00;99402.06;5064320;28;20878;-77
2024/02/12 11:12:42;;;;;;;17.08;7.15;;;;;;;6.74;100.00;99418.34;5056163;28;20449;-77
2024/02/12 11:15:12;;;;;;;16.55;7.25;;;;;;;6.69;100.00;99404.84;5057913;28;20425;-77
2024/02/12 11:17:46;;;;;;;14.40;7.10;;;;;;;7.03;100.00;99406.69;5055696;28;20418;-77
2024/02/12 11:20:23;;;;;;;15.68;7.35;;;;;;;6.98;100.00;99415.63;5059081;28;21214;-77
2024/02/12 11:23:07;;;;;;;18.20;7.20;;;;;;;6.88;100.00;99406.84;5053982;28;20426;-77
2024/02/12 11:25:42;;;;;;;15.52;7.25;;;;;;;6.85;100.00;99416.34;5066481;28;21767;-77
2024/02/12 11:28:15;;;;;;;14.98;6.97;;;;;;;7.03;100.00;99420.22;5062166;28;20432;-77
2024/02/12 11:30:44;;;;;;;18.23;6.97;;;;;;;6.86;100.00;99417.94;5057045;28;20417;-77
2024/02/12 11:33:17;;;;;;;16.55;6.35;;;;;;;6.83;100.00;99420.41;5034952;28;20410;-77
2024/02/12 11:35:50;;;;;;;16.17;6.60;;;;;;;7.04;100.00;99429.13;5062643;28;20426;-77
2024/02/12 11:38:24;;;;;;;15.80;6.40;;;;;;;6.93;100.00;99428.41;5061030;28;21081;-77
2024/02/12 11:40:59;;;;;;;14.55;6.35;;;;;;;6.95;100.00;99424.34;5051782;28;20909;-77
2024/02/12 11:43:29;;;;;;;15.25;6.10;;;;;;;7.07;100.00;99431.25;5059285;28;20857;-77
2024/02/12 11:46:02;;;;;;;13.02;5.90;;;;;;;7.03;100.00;99439.16;5058915;28;20431;-78
2024/02/12 11:48:31;;;;;;;15.48;6.28;;;;;;;7.09;100.00;99434.47;5051774;28;20422;-77
2024/02/12 11:51:04;;;;;;;13.20;5.97;;;;;;;6.94;100.00;99443.56;5050418;28;22159;-77
2024/02/12 11:53:40;;;;;;;13.35;5.93;;;;;;;6.89;100.00;99440.91;5050380;28;20441;-77
2024/02/12 11:56:08;;;;;;;15.30;6.17;;;;;;;7.07;100.00;99447.47;5055506;28;20480;-77
2024/02/12 11:58:41;;;;;;;14.15;6.20;;;;;;;7.24;100.00;99453.25;5061842;28;20425;-78
2024/02/12 12:01:15;;;;;;;14.10;6.43;;;;;;;7.15;100.00;99455.78;5060281;28;21051;-77
2024/02/12 12:03:49;;;;;;;17.00;6.35;;;;;;;7.09;100.00;99458.84;5060395;28;20418;-77
2024/02/12 12:06:23;;;;;;;17.70;6.82;;;;;;;7.09;100.00;99454.22;5062462;28;20425;-77